Skip Navigation Links
NOAA logo - Click to go to the NOAA homepage
NOAA's National Weather Service
Alaska Aviation Weather Unit
  NWS logo - Click to go to the NWS homepage
Left Navbar Graphic     23 AKDT = 07 GMT

   
NOAA is celebrating 200 years of science, service, and stewardship. Visit the NOAA 200th celebration Web site to learn more.
USA.gov is the U.S. Government's official Web portal to all Federal, state and local government Web resources and services.
Facebook
NWS on Facebook

Important Change Regarding the AAWU Web Presence

 

Over the last several months, the AAWU has been working to navigate its webpages to a nationally supported server. Security, as well as other needs, have necessitated the change.  In the process, we have made an effort to enhance the functionality of our website, as well as some of our products. As of June 20, 2017, aawu.arh.noaa.gov will be discontinued. The new AAWU web address is weather.gov/aawu. It is now live and will run in-parallel with the old site until it is discontinued. Please send any feedback or questions regarding the new webpages to nws.ar.aawu.webauthors@noaa.gov.  Thank you for your patience during this time of transition.
AAWU Home :: Display TAF Add Bookmark
TAF PAJN 240520Z 2406/2506 VRB04KT P6SM BKN035
     FM241200 VRB02KT P6SM BKN025
     FM241900 24008KT P6SM BKN035=

METAR PAJN 240153Z 25017G25KT 10SM SCT042 SCT120 14/07 A2990= METAR PAJN 240253Z 26016KT 10SM SCT040 BKN050 BKN180 14/07 A2991= METAR PAJN 240353Z 29009KT 10SM SCT041 BKN055 12/06 A2995= METAR PAJN 240453Z 34006KT 10SM SCT038 BKN055 12/05 A2997= METAR PAJN 240553Z 33009KT 10SM FEW038 BKN055 BKN065 11/06 A3001= METAR PAJN 240653Z VRB03KT 10SM FEW038 BKN045 BKN060 11/06 A3005=
 Alaska TAF Map

NOAA's National Weather Service
Alaska Aviation Weather Unit
6930 Sand Lake Road
Anchorage, AK 99502-1845
Disclaimer
Credits
Glossary
Privacy Policy
About Us
Career Opportunities
Contact AAWU Internet Services Site last modified: April, 17th 2012